createdAt,value
2023-03-12T00:00:02.229Z,1.44
2023-03-12T00:00:12.349Z,1.43
2023-03-12T00:00:22.405Z,1.42
2023-03-12T00:00:32.473Z,1.43
2023-03-12T00:00:42.520Z,1.42
2023-03-12T00:00:52.564Z,1.43
2023-03-12T00:01:02.609Z,1.42
2023-03-12T00:01:12.704Z,1.43
2023-03-12T00:01:22.741Z,1.43
2023-03-12T00:01:32.780Z,1.43
2023-03-12T00:01:42.838Z,1.43
2023-03-12T00:01:52.887Z,1.43
2023-03-12T00:02:02.941Z,1.42
2023-03-12T00:02:13.013Z,1.43
2023-03-12T00:02:23.133Z,1.43
2023-03-12T00:02:33.207Z,1.44
2023-03-12T00:02:43.365Z,1.44
2023-03-12T00:02:53.442Z,1.44
2023-03-12T00:03:03.499Z,1.43
2023-03-12T00:03:13.581Z,1.43
2023-03-12T00:03:23.648Z,1.43
2023-03-12T00:03:33.726Z,1.43
2023-03-12T00:03:43.806Z,1.43
2023-03-12T00:03:53.995Z,1.43
2023-03-12T00:04:04.103Z,1.43
2023-03-12T00:04:14.049Z,1.43
2023-03-12T00:04:24.104Z,1.43
2023-03-12T00:04:34.169Z,1.43
2023-03-12T00:04:44.225Z,1.42
2023-03-12T00:04:54.289Z,1.42
2023-03-12T00:05:04.358Z,1.43
2023-03-12T00:05:14.439Z,1.43
2023-03-12T00:05:24.512Z,1.43
2023-03-12T00:05:34.561Z,1.43
2023-03-12T00:05:44.652Z,1.43
2023-03-12T00:05:54.730Z,1.43
2023-03-12T00:06:10.428Z,1.43
2023-03-12T00:06:15.776Z,1.39
2023-03-12T00:06:25.827Z,1.42
2023-03-12T00:06:35.860Z,1.42
2023-03-12T00:06:45.977Z,1.42
2023-03-12T00:06:56.033Z,1.43
2023-03-12T00:07:06.092Z,1.43
2023-03-12T00:07:16.177Z,1.43
2023-03-12T00:07:26.220Z,1.44
2023-03-12T00:07:36.282Z,1.43
2023-03-12T00:07:46.321Z,1.42
2023-03-12T00:07:56.379Z,1.42
2023-03-12T00:08:06.460Z,1.43
2023-03-12T00:08:16.521Z,1.43
2023-03-12T00:08:26.600Z,1.43
2023-03-12T00:08:36.639Z,1.43
2023-03-12T00:08:46.682Z,1.43
2023-03-12T00:08:56.750Z,1.43
2023-03-12T00:09:06.818Z,1.43
2023-03-12T00:09:16.880Z,1.43
2023-03-12T00:09:26.910Z,1.44
2023-03-12T00:09:36.969Z,1.44
2023-03-12T00:09:47.028Z,1.43
2023-03-12T00:09:57.088Z,1.43
2023-03-12T00:10:07.140Z,1.44
2023-03-12T00:10:17.210Z,1.44
2023-03-12T00:10:27.360Z,1.44
2023-03-12T00:10:37.457Z,1.43
2023-03-12T00:10:47.502Z,1.43
2023-03-12T00:10:57.560Z,1.43
2023-03-12T00:11:07.609Z,1.44
2023-03-12T00:11:17.689Z,1.43
2023-03-12T00:11:27.764Z,1.44
2023-03-12T00:11:37.798Z,1.44
2023-03-12T00:11:47.852Z,1.44
2023-03-12T00:11:57.888Z,1.46
2023-03-12T00:12:07.942Z,1.44
2023-03-12T00:12:17.978Z,1.44
2023-03-12T00:12:28.039Z,1.42
2023-03-12T00:12:38.068Z,1.43
2023-03-12T00:12:48.111Z,1.44
2023-03-12T00:12:58.141Z,1.44
2023-03-12T00:13:08.198Z,1.44
2023-03-12T00:13:18.248Z,1.43
2023-03-12T00:13:28.369Z,1.44
2023-03-12T00:13:38.301Z,1.44
2023-03-12T00:13:48.417Z,1.43
2023-03-12T00:13:58.450Z,1.43
2023-03-12T00:14:08.507Z,1.44
2023-03-12T00:14:18.548Z,1.44
2023-03-12T00:14:28.632Z,1.44
2023-03-12T00:14:38.684Z,1.44
2023-03-12T00:14:48.731Z,1.44
2023-03-12T00:14:58.795Z,1.44
2023-03-12T00:15:08.802Z,1.44
2023-03-12T00:15:18.838Z,1.46
2023-03-12T00:15:28.876Z,1.44
2023-03-12T00:15:39.087Z,1.44
2023-03-12T00:15:49.088Z,1.43
2023-03-12T00:15:59.182Z,1.44
2023-03-12T00:16:09.290Z,1.44
2023-03-12T00:16:19.354Z,1.44
2023-03-12T00:16:29.482Z,1.44
2023-03-12T00:16:39.557Z,1.44
2023-03-12T00:16:49.617Z,1.44
2023-03-12T00:16:59.669Z,1.43
2023-03-12T00:17:09.809Z,1.43
2023-03-12T00:17:19.853Z,1.43
2023-03-12T00:17:29.909Z,1.43
2023-03-12T00:17:39.961Z,1.43
2023-03-12T00:17:50.018Z,1.44
2023-03-12T00:18:00.048Z,1.43
2023-03-12T00:18:10.120Z,1.44
2023-03-12T00:18:20.146Z,1.43
2023-03-12T00:18:30.198Z,1.44
2023-03-12T00:18:40.266Z,1.46
2023-03-12T00:18:50.320Z,1.44
2023-03-12T00:19:00.348Z,1.44
2023-03-12T00:19:10.536Z,1.44
2023-03-12T00:19:20.415Z,1.44
2023-03-12T00:19:30.469Z,1.44
2023-03-12T00:19:40.509Z,1.44
2023-03-12T00:19:50.569Z,1.44
2023-03-12T00:20:00.652Z,1.44
2023-03-12T00:20:10.702Z,1.44
2023-03-12T00:20:20.742Z,1.44
2023-03-12T00:20:30.963Z,1.44
2023-03-12T00:20:40.828Z,1.43
2023-03-12T00:20:50.866Z,1.44
2023-03-12T00:21:00.898Z,1.44
2023-03-12T00:21:10.932Z,1.43
2023-03-12T00:21:20.956Z,1.43
2023-03-12T00:21:30.996Z,1.43
2023-03-12T00:21:41.044Z,1.43
2023-03-12T00:21:51.123Z,1.44
2023-03-12T00:22:01.179Z,1.43
2023-03-12T00:22:11.216Z,1.44
2023-03-12T00:22:21.337Z,1.43
2023-03-12T00:22:31.381Z,1.43
2023-03-12T00:22:41.506Z,1.43
2023-03-12T00:22:51.556Z,1.44
2023-03-12T00:23:01.617Z,1.43
2023-03-12T00:23:11.656Z,1.43
2023-03-12T00:23:21.718Z,1.43
2023-03-12T00:23:31.756Z,1.44
2023-03-12T00:23:41.798Z,1.44
2023-03-12T00:23:51.853Z,1.44
2023-03-12T00:24:01.997Z,1.43
2023-03-12T00:24:12.045Z,1.43
2023-03-12T00:24:22.099Z,1.44
2023-03-12T00:24:32.146Z,1.44
2023-03-12T00:24:42.192Z,1.44
2023-03-12T00:24:52.236Z,1.44
2023-03-12T00:25:02.310Z,1.44
2023-03-12T00:25:12.353Z,1.44
2023-03-12T00:25:22.416Z,1.43
2023-03-12T00:25:32.503Z,1.46
2023-03-12T00:25:44.226Z,1.44
2023-03-12T00:25:52.596Z,1.44
2023-03-12T00:26:02.634Z,1.44
2023-03-12T00:26:12.707Z,1.44
2023-03-12T00:26:22.759Z,1.46
2023-03-12T00:26:32.808Z,1.46
2023-03-12T00:26:42.871Z,1.46
2023-03-12T00:26:52.947Z,1.46
2023-03-12T00:27:03.030Z,1.46
2023-03-12T00:27:13.074Z,1.46
2023-03-12T00:27:23.125Z,1.44
2023-03-12T00:27:33.166Z,1.44
2023-03-12T00:27:43.264Z,1.46
2023-03-12T00:27:53.315Z,1.46
2023-03-12T00:28:03.368Z,1.46
2023-03-12T00:28:13.419Z,1.47
2023-03-12T00:28:23.464Z,1.46
2023-03-12T00:28:33.503Z,1.47
2023-03-12T00:28:43.568Z,1.46
2023-03-12T00:28:53.609Z,1.46
2023-03-12T00:29:03.646Z,1.47
2023-03-12T00:29:13.705Z,1.46
2023-03-12T00:29:23.764Z,1.46
2023-03-12T00:29:33.808Z,1.47
2023-03-12T00:29:43.924Z,1.46
2023-03-12T00:29:53.964Z,1.46
2023-03-12T00:30:04.012Z,1.46
2023-03-12T00:30:14.064Z,1.47
2023-03-12T00:30:24.137Z,1.46
2023-03-12T00:30:34.198Z,1.47
2023-03-12T00:30:44.282Z,1.46
2023-03-12T00:30:57.126Z,1.47
2023-03-12T00:31:04.412Z,1.47
2023-03-12T00:31:14.545Z,1.47
2023-03-12T00:31:24.633Z,1.46
2023-03-12T00:31:34.736Z,1.46
2023-03-12T00:31:44.896Z,1.47
2023-03-12T00:31:54.984Z,1.44
2023-03-12T00:32:05.064Z,1.46
2023-03-12T00:32:15.160Z,1.46
2023-03-12T00:32:25.225Z,1.46
2023-03-12T00:32:35.289Z,1.47
2023-03-12T00:32:45.465Z,1.46
2023-03-12T00:32:55.412Z,1.47
2023-03-12T00:33:05.482Z,1.47
2023-03-12T00:33:15.532Z,1.46
2023-03-12T00:33:25.589Z,1.46
2023-03-12T00:33:35.642Z,1.47
2023-03-12T00:33:45.681Z,1.47
2023-03-12T00:33:55.761Z,1.46
2023-03-12T00:34:05.801Z,1.47
2023-03-12T00:34:15.862Z,1.47
2023-03-12T00:34:25.910Z,1.47
2023-03-12T00:34:35.959Z,1.47
2023-03-12T00:34:46.061Z,1.46
2023-03-12T00:34:56.092Z,1.46
2023-03-12T00:35:06.160Z,1.46
2023-03-12T00:35:16.209Z,1.47
2023-03-12T00:35:26.323Z,1.47
2023-03-12T00:35:36.380Z,1.47
2023-03-12T00:35:46.470Z,1.47
2023-03-12T00:35:56.611Z,1.47
2023-03-12T00:36:06.663Z,1.47
2023-03-12T00:36:16.692Z,1.47
2023-03-12T00:36:26.759Z,1.47
2023-03-12T00:36:36.800Z,1.49
2023-03-12T00:36:46.921Z,1.47
2023-03-12T00:36:57.025Z,1.47
2023-03-12T00:37:07.070Z,1.49
2023-03-12T00:37:17.130Z,1.47
2023-03-12T00:37:27.171Z,1.47
2023-03-12T00:37:37.279Z,1.47
2023-03-12T00:37:47.349Z,1.47
2023-03-12T00:37:57.402Z,1.49
2023-03-12T00:38:07.450Z,1.47
2023-03-12T00:38:17.511Z,1.47
2023-03-12T00:38:27.560Z,1.47
2023-03-12T00:38:37.619Z,1.49
2023-03-12T00:38:47.672Z,1.47
2023-03-12T00:38:57.734Z,1.47
2023-03-12T00:39:07.793Z,1.47
2023-03-12T00:39:17.839Z,1.49
2023-03-12T00:39:27.878Z,1.47
2023-03-12T00:39:37.936Z,1.47
2023-03-12T00:39:47.989Z,1.49
2023-03-12T00:39:58.044Z,1.49
2023-03-12T00:40:08.106Z,1.49
2023-03-12T00:40:18.175Z,1.47
2023-03-12T00:40:28.220Z,1.47
2023-03-12T00:40:38.288Z,1.47
2023-03-12T00:40:48.332Z,1.47
2023-03-12T00:40:58.527Z,1.49
2023-03-12T00:41:08.399Z,1.49
2023-03-12T00:41:18.448Z,1.49
2023-03-12T00:41:28.500Z,1.49
2023-03-12T00:41:38.560Z,1.50
2023-03-12T00:41:48.612Z,1.50
2023-03-12T00:41:58.739Z,1.49
2023-03-12T00:42:08.779Z,1.49
2023-03-12T00:42:18.840Z,1.50
2023-03-12T00:42:28.877Z,1.49
2023-03-12T00:42:38.969Z,1.50
2023-03-12T00:42:49.008Z,1.49
2023-03-12T00:42:59.054Z,1.50
2023-03-12T00:43:09.106Z,1.50
2023-03-12T00:43:19.150Z,1.50
2023-03-12T00:43:29.180Z,1.50
2023-03-12T00:43:39.219Z,1.52
2023-03-12T00:43:49.301Z,1.50
2023-03-12T00:43:59.397Z,1.50
2023-03-12T00:44:09.439Z,1.50
2023-03-12T00:44:19.496Z,1.52
2023-03-12T00:44:29.554Z,1.49
2023-03-12T00:44:39.597Z,1.50
2023-03-12T00:44:49.648Z,1.52
2023-03-12T00:44:59.702Z,1.50
2023-03-12T00:45:09.762Z,1.50
2023-03-12T00:45:19.796Z,1.52
2023-03-12T00:45:29.850Z,1.50
2023-03-12T00:45:39.917Z,1.52
2023-03-12T00:45:49.966Z,1.50
2023-03-12T00:46:00.024Z,1.52
2023-03-12T00:46:10.149Z,1.50
2023-03-12T00:46:20.216Z,1.50
2023-03-12T00:46:30.285Z,1.50
2023-03-12T00:46:40.591Z,1.52
2023-03-12T00:46:50.577Z,1.50
2023-03-12T00:47:00.592Z,1.50
2023-03-12T00:47:10.679Z,1.50
2023-03-12T00:47:20.726Z,1.50
2023-03-12T00:47:30.776Z,1.52
2023-03-12T00:47:40.831Z,1.52
2023-03-12T00:47:50.873Z,1.52
2023-03-12T00:48:00.913Z,1.52
2023-03-12T00:48:10.951Z,1.50
2023-03-12T00:48:20.992Z,1.52
2023-03-12T00:48:31.036Z,1.52
2023-03-12T00:48:41.084Z,1.52
2023-03-12T00:48:51.143Z,1.52
2023-03-12T00:49:01.206Z,1.52
2023-03-12T00:49:11.260Z,1.52
2023-03-12T00:49:21.305Z,1.52
2023-03-12T00:49:31.390Z,1.52
2023-03-12T00:49:41.443Z,1.52
2023-03-12T00:49:51.504Z,1.52
2023-03-12T00:50:01.556Z,1.52
2023-03-12T00:50:11.619Z,1.52
2023-03-12T00:50:21.656Z,1.52
2023-03-12T00:50:31.708Z,1.52
2023-03-12T00:50:41.744Z,1.52
2023-03-12T00:50:51.798Z,1.52
2023-03-12T00:51:01.876Z,1.52
2023-03-12T00:51:11.936Z,1.53
2023-03-12T00:51:22.007Z,1.52
2023-03-12T00:51:32.053Z,1.52
2023-03-12T00:51:42.107Z,1.52
2023-03-12T00:51:52.209Z,1.54
2023-03-12T00:52:02.253Z,1.52
2023-03-12T00:52:12.285Z,1.52
2023-03-12T00:52:22.338Z,1.52
2023-03-12T00:52:32.386Z,1.52
2023-03-12T00:52:42.435Z,1.50
2023-03-12T00:52:52.484Z,1.50
2023-03-12T00:53:02.542Z,1.50
2023-03-12T00:53:12.589Z,1.52
2023-03-12T00:53:22.645Z,1.50
2023-03-12T00:53:32.704Z,1.52
2023-03-12T00:53:42.778Z,1.50
2023-03-12T00:53:52.886Z,1.50
2023-03-12T00:54:02.985Z,1.53
2023-03-12T00:54:13.025Z,1.50
2023-03-12T00:54:23.073Z,1.52
2023-03-12T00:54:33.115Z,1.52
2023-03-12T00:54:43.214Z,1.52
2023-03-12T00:54:53.255Z,1.52
2023-03-12T00:55:03.330Z,1.53
2023-03-12T00:55:13.374Z,1.52
2023-03-12T00:55:23.414Z,1.52
2023-03-12T00:55:33.467Z,1.52
2023-03-12T00:55:43.525Z,1.52
2023-03-12T00:55:53.569Z,1.53
2023-03-12T00:56:03.614Z,1.53
2023-03-12T00:56:13.681Z,1.53
2023-03-12T00:56:23.733Z,1.53
2023-03-12T00:56:33.773Z,1.52
2023-03-12T00:56:43.814Z,1.54
2023-03-12T00:56:53.883Z,1.53
2023-03-12T00:57:03.932Z,1.54
2023-03-12T00:57:13.976Z,1.54
2023-03-12T00:57:24.034Z,1.56
2023-03-12T00:57:34.084Z,1.54
2023-03-12T00:57:44.134Z,1.54
2023-03-12T00:57:54.257Z,1.56
2023-03-12T00:58:04.320Z,1.54
2023-03-12T00:58:14.417Z,1.54
2023-03-12T00:58:24.484Z,1.54
2023-03-12T00:58:34.541Z,1.56
2023-03-12T00:58:44.644Z,1.56
2023-03-12T00:58:54.704Z,1.56
2023-03-12T00:59:04.774Z,1.57
2023-03-12T00:59:14.851Z,1.56
2023-03-12T00:59:24.923Z,1.56
2023-03-12T00:59:34.963Z,1.60
2023-03-12T00:59:45.025Z,1.56
2023-03-12T00:59:55.078Z,1.56
2023-03-12T01:00:05.126Z,1.57
2023-03-12T01:00:15.176Z,1.57
2023-03-12T01:00:25.314Z,1.57
2023-03-12T01:00:35.398Z,1.57
2023-03-12T01:00:45.460Z,1.56
2023-03-12T01:00:55.511Z,1.57
2023-03-12T01:01:05.655Z,1.56
2023-03-12T01:01:15.806Z,1.56
2023-03-12T01:01:25.853Z,1.54
2023-03-12T01:01:35.913Z,1.56
2023-03-12T01:01:45.964Z,1.54
2023-03-12T01:01:56.032Z,1.56
2023-03-12T01:02:06.077Z,1.53
2023-03-12T01:02:16.116Z,1.54
2023-03-12T01:02:26.152Z,1.54
2023-03-12T01:02:36.220Z,1.54
2023-03-12T01:02:46.256Z,1.54
2023-03-12T01:02:56.334Z,1.53
2023-03-12T01:03:06.423Z,1.56
2023-03-12T01:03:16.475Z,1.53
2023-03-12T01:03:26.513Z,1.56
2023-03-12T01:03:36.641Z,1.53
2023-03-12T01:03:46.786Z,1.54
2023-03-12T01:03:56.852Z,1.54
2023-03-12T01:04:06.950Z,1.54
2023-03-12T01:04:17.038Z,1.54
2023-03-12T01:04:27.148Z,1.53
2023-03-12T01:04:37.104Z,1.54
2023-03-12T01:04:47.154Z,1.54
2023-03-12T01:04:57.244Z,1.56
2023-03-12T01:05:07.304Z,1.56
2023-03-12T01:05:17.364Z,1.56
2023-03-12T01:05:27.440Z,1.54
2023-03-12T01:05:37.590Z,1.54
2023-03-12T01:05:47.624Z,1.56
2023-03-12T01:05:57.675Z,1.54
2023-03-12T01:06:07.728Z,1.54
2023-03-12T01:06:17.815Z,1.57
2023-03-12T01:06:27.864Z,1.54
2023-03-12T01:06:37.929Z,1.56
2023-03-12T01:06:47.977Z,1.57
2023-03-12T01:06:58.069Z,1.57
2023-03-12T01:07:08.130Z,1.60
2023-03-12T01:07:18.174Z,1.57
2023-03-12T01:07:28.223Z,1.57
2023-03-12T01:07:38.274Z,1.60
2023-03-12T01:07:48.323Z,1.60
2023-03-12T01:07:58.444Z,1.60
2023-03-12T01:08:08.512Z,1.60
2023-03-12T01:08:18.545Z,1.60
2023-03-12T01:08:28.611Z,1.57
2023-03-12T01:08:38.663Z,1.60
2023-03-12T01:08:48.711Z,1.57
2023-03-12T01:08:58.753Z,1.61
2023-03-12T01:09:08.788Z,1.60
2023-03-12T01:09:18.845Z,1.61
2023-03-12T01:09:28.883Z,1.61
2023-03-12T01:09:38.924Z,1.61
2023-03-12T01:09:48.968Z,1.61
2023-03-12T01:09:59.015Z,1.61
2023-03-12T01:10:09.055Z,1.63
2023-03-12T01:10:19.110Z,1.63
2023-03-12T01:10:29.156Z,1.63
2023-03-12T01:10:39.277Z,1.63
2023-03-12T01:10:49.347Z,1.63
2023-03-12T01:10:59.458Z,1.63
2023-03-12T01:11:09.542Z,1.64
2023-03-12T01:11:19.609Z,1.64
2023-03-12T01:11:29.654Z,1.64
2023-03-12T01:11:39.718Z,1.64
2023-03-12T01:11:49.759Z,1.65
2023-03-12T01:11:59.809Z,1.64
2023-03-12T01:12:09.879Z,1.64
2023-03-12T01:12:19.916Z,1.64
2023-03-12T01:12:29.965Z,1.65
2023-03-12T01:12:40.065Z,1.64
2023-03-12T01:12:50.124Z,1.64
2023-03-12T01:13:00.157Z,1.65
2023-03-12T01:13:10.211Z,1.64
2023-03-12T01:13:20.236Z,1.65
2023-03-12T01:13:30.295Z,1.67
2023-03-12T01:13:40.358Z,1.67
2023-03-12T01:13:50.403Z,1.65
2023-03-12T01:14:00.445Z,1.65
2023-03-12T01:14:10.485Z,1.67
2023-03-12T01:14:20.535Z,1.67
2023-03-12T01:14:30.585Z,1.65
2023-03-12T01:14:40.628Z,1.67
2023-03-12T01:14:50.777Z,1.67
2023-03-12T01:15:00.818Z,1.67
2023-03-12T01:15:10.864Z,1.68
2023-03-12T01:15:20.892Z,1.70
2023-03-12T01:15:31.043Z,1.68
2023-03-12T01:15:41.087Z,1.68
2023-03-12T01:15:51.119Z,1.68
2023-03-12T01:16:01.220Z,1.70
2023-03-12T01:16:11.268Z,1.70
2023-03-12T01:16:21.394Z,1.70
2023-03-12T01:16:31.453Z,1.71
2023-03-12T01:16:41.515Z,1.70
2023-03-12T01:16:52.647Z,1.71
2023-03-12T01:17:01.627Z,1.71
2023-03-12T01:17:11.724Z,1.71
2023-03-12T01:17:21.834Z,1.70
2023-03-12T01:17:31.844Z,1.71
2023-03-12T01:17:41.903Z,1.71
2023-03-12T01:17:51.944Z,1.71
2023-03-12T01:18:02.012Z,1.72
2023-03-12T01:18:12.036Z,1.70
2023-03-12T01:18:22.115Z,1.72
2023-03-12T01:18:32.144Z,1.72
2023-03-12T01:18:42.214Z,1.72
2023-03-12T01:18:52.245Z,1.72
2023-03-12T01:19:02.301Z,1.72
2023-03-12T01:19:12.320Z,1.72
2023-03-12T01:19:22.725Z,1.74
2023-03-12T01:19:32.554Z,1.74
2023-03-12T01:19:42.734Z,1.74
2023-03-12T01:19:52.907Z,1.74
2023-03-12T01:20:02.976Z,1.74
2023-03-12T01:20:13.012Z,1.75
2023-03-12T01:20:23.047Z,1.75
2023-03-12T01:20:33.051Z,1.75
2023-03-12T01:20:43.072Z,1.75
2023-03-12T01:20:53.073Z,1.77
2023-03-12T01:21:03.071Z,1.77
2023-03-12T01:21:13.234Z,1.75
2023-03-12T01:21:23.403Z,1.77
2023-03-12T01:21:33.577Z,1.77
2023-03-12T01:21:43.569Z,1.77
2023-03-12T01:21:53.724Z,1.79
2023-03-12T01:22:03.730Z,1.77
2023-03-12T01:22:13.903Z,1.79
2023-03-12T01:22:23.915Z,1.81
2023-03-12T01:22:34.091Z,1.79
2023-03-12T01:22:44.258Z,1.79
2023-03-12T01:22:54.247Z,1.79
2023-03-12T01:23:04.243Z,1.79
2023-03-12T01:23:14.412Z,1.79
2023-03-12T01:23:24.575Z,1.81
2023-03-12T01:23:34.751Z,1.81
2023-03-12T01:23:44.834Z,1.82
2023-03-12T01:23:54.984Z,1.81
2023-03-12T01:24:05.014Z,1.82
2023-03-12T01:24:15.186Z,1.81
2023-03-12T01:24:25.210Z,1.81
2023-03-12T01:24:35.199Z,1.81
2023-03-12T01:24:45.183Z,1.81
2023-03-12T01:24:55.346Z,1.82
2023-03-12T01:25:05.506Z,1.82
2023-03-12T01:25:15.704Z,1.81
2023-03-12T01:25:25.690Z,1.81
2023-03-12T01:25:35.715Z,1.82
2023-03-12T01:25:45.763Z,1.82
2023-03-12T01:25:55.879Z,1.79
2023-03-12T01:26:05.913Z,1.81
2023-03-12T01:26:15.976Z,1.81
2023-03-12T01:26:26.013Z,1.81
2023-03-12T01:26:36.066Z,1.81
2023-03-12T01:26:46.127Z,1.82
2023-03-12T01:26:56.185Z,1.82
2023-03-12T01:27:06.224Z,1.82
2023-03-12T01:27:16.275Z,1.81
2023-03-12T01:27:26.318Z,1.81
2023-03-12T01:27:36.373Z,1.81
2023-03-12T01:27:46.422Z,1.81
2023-03-12T01:27:56.471Z,1.81
2023-03-12T01:28:06.539Z,1.82
2023-03-12T01:28:16.583Z,1.82
2023-03-12T01:28:26.646Z,1.82
2023-03-12T01:28:36.674Z,1.82
2023-03-12T01:28:46.730Z,1.81
2023-03-12T01:28:56.789Z,1.82
2023-03-12T01:29:06.827Z,1.82
2023-03-12T01:29:16.882Z,1.81
2023-03-12T01:29:26.926Z,1.82
2023-03-12T01:29:36.962Z,1.83
2023-03-12T01:29:47.021Z,1.82
2023-03-12T01:29:57.066Z,1.83
2023-03-12T01:30:07.094Z,1.82
2023-03-12T01:30:17.209Z,1.81
2023-03-12T01:30:27.244Z,1.81
2023-03-12T01:30:37.334Z,1.82
2023-03-12T01:30:47.393Z,1.82
2023-03-12T01:30:57.433Z,1.81
2023-03-12T01:31:07.506Z,1.81
2023-03-12T01:31:17.592Z,1.82
2023-03-12T01:31:27.712Z,1.82
2023-03-12T01:31:37.756Z,1.81
2023-03-12T01:31:47.809Z,1.82
2023-03-12T01:31:57.862Z,1.81
2023-03-12T01:32:07.916Z,1.79
2023-03-12T01:32:17.972Z,1.81
2023-03-12T01:32:28.043Z,1.79
2023-03-12T01:32:38.168Z,1.79
2023-03-12T01:32:48.231Z,1.79
2023-03-12T01:32:58.142Z,1.77
2023-03-12T01:33:08.228Z,1.77
2023-03-12T01:33:18.261Z,1.77
2023-03-12T01:33:28.318Z,1.77
2023-03-12T01:33:38.405Z,1.77
2023-03-12T01:33:48.453Z,1.75
2023-03-12T01:33:58.494Z,1.77
2023-03-12T01:34:08.533Z,1.77
2023-03-12T01:34:18.589Z,1.77
2023-03-12T01:34:28.641Z,1.77
2023-03-12T01:34:38.710Z,1.77
2023-03-12T01:34:48.753Z,1.75
2023-03-12T01:34:58.802Z,1.77
2023-03-12T01:35:08.890Z,1.77
2023-03-12T01:35:19.006Z,1.77
2023-03-12T01:35:29.122Z,1.75
2023-03-12T01:35:39.311Z,1.77
2023-03-12T01:35:49.276Z,1.75
2023-03-12T01:35:59.410Z,1.75
2023-03-12T01:36:09.541Z,1.75
2023-03-12T01:36:19.585Z,1.75
2023-03-12T01:36:29.717Z,1.75
2023-03-12T01:36:39.615Z,1.75
2023-03-12T01:36:49.652Z,1.75
2023-03-12T01:36:59.700Z,1.75
2023-03-12T01:37:09.753Z,1.74
2023-03-12T01:37:19.784Z,1.72
2023-03-12T01:37:29.791Z,1.75
2023-03-12T01:37:39.829Z,1.74
2023-03-12T01:37:49.877Z,1.72
2023-03-12T01:37:59.925Z,1.71
2023-03-12T01:38:10.056Z,1.72
2023-03-12T01:38:20.092Z,1.72
2023-03-12T01:38:30.138Z,1.71
2023-03-12T01:38:40.179Z,1.71
2023-03-12T01:38:50.219Z,1.71
2023-03-12T01:39:00.267Z,1.70
2023-03-12T01:39:10.343Z,1.70
2023-03-12T01:39:20.392Z,1.70
2023-03-12T01:39:30.549Z,1.70
2023-03-12T01:39:40.591Z,1.68
2023-03-12T01:39:50.697Z,1.71
2023-03-12T01:40:00.742Z,1.68
2023-03-12T01:40:10.797Z,1.70
2023-03-12T01:40:20.990Z,1.68
2023-03-12T01:40:30.998Z,1.68
2023-03-12T01:40:40.865Z,1.68
2023-03-12T01:40:50.916Z,1.68
2023-03-12T01:41:01.004Z,1.68
2023-03-12T01:41:11.037Z,1.67
2023-03-12T01:41:21.094Z,1.68
2023-03-12T01:41:31.127Z,1.67
2023-03-12T01:41:41.198Z,1.68
2023-03-12T01:41:51.246Z,1.67
2023-03-12T01:42:01.307Z,1.67
2023-03-12T01:42:11.356Z,1.67
2023-03-12T01:42:21.396Z,1.65
2023-03-12T01:42:31.451Z,1.64
2023-03-12T01:42:41.486Z,1.64
2023-03-12T01:42:51.548Z,1.64
2023-03-12T01:43:01.619Z,1.63
2023-03-12T01:43:11.668Z,1.64
2023-03-12T01:43:21.707Z,1.64
2023-03-12T01:43:31.756Z,1.64
2023-03-12T01:43:41.786Z,1.63
2023-03-12T01:43:51.867Z,1.64
2023-03-12T01:44:01.914Z,1.63
2023-03-12T01:44:11.946Z,1.63
2023-03-12T01:44:22.014Z,1.61
2023-03-12T01:44:32.067Z,1.61
2023-03-12T01:44:42.107Z,1.61
2023-03-12T01:44:52.159Z,1.63
2023-03-12T01:45:02.196Z,1.61
2023-03-12T01:45:12.245Z,1.61
2023-03-12T01:45:22.307Z,1.61
2023-03-12T01:45:32.370Z,1.61
2023-03-12T01:45:42.419Z,1.61
2023-03-12T01:45:52.498Z,1.63
2023-03-12T01:46:02.675Z,1.61
2023-03-12T01:46:12.686Z,1.61
2023-03-12T01:46:22.761Z,1.63
2023-03-12T01:46:32.799Z,1.63
2023-03-12T01:46:42.834Z,1.63
2023-03-12T01:46:52.899Z,1.63
2023-03-12T01:47:03.054Z,1.63
2023-03-12T01:47:13.110Z,1.63
2023-03-12T01:47:23.135Z,1.64
2023-03-12T01:47:33.186Z,1.63
2023-03-12T01:47:43.214Z,1.64
2023-03-12T01:47:53.277Z,1.65
2023-03-12T01:48:03.343Z,1.64
2023-03-12T01:48:13.382Z,1.64
2023-03-12T01:48:23.413Z,1.65
2023-03-12T01:48:33.457Z,1.64
2023-03-12T01:48:43.511Z,1.64
2023-03-12T01:48:53.555Z,1.65
2023-03-12T01:49:03.593Z,1.64
2023-03-12T01:49:13.656Z,1.64
2023-03-12T01:49:23.753Z,1.65
2023-03-12T01:49:33.816Z,1.65
2023-03-12T01:49:43.883Z,1.65
2023-03-12T01:49:53.912Z,1.65
2023-03-12T01:50:03.952Z,1.67
2023-03-12T01:50:13.998Z,1.65
2023-03-12T01:50:24.070Z,1.67
2023-03-12T01:50:34.121Z,1.67
2023-03-12T01:50:44.145Z,1.67
2023-03-12T01:50:54.271Z,1.67
2023-03-12T01:51:04.322Z,1.67
2023-03-12T01:51:14.418Z,1.67
2023-03-12T01:51:24.458Z,1.68
2023-03-12T01:51:34.498Z,1.68
2023-03-12T01:51:44.613Z,1.68
2023-03-12T01:51:54.664Z,1.68
2023-03-12T01:52:04.699Z,1.68
2023-03-12T01:52:14.747Z,1.67
2023-03-12T01:52:24.873Z,1.68
2023-03-12T01:52:34.912Z,1.68
2023-03-12T01:52:44.955Z,1.68
2023-03-12T01:52:54.993Z,1.67
2023-03-12T01:53:05.092Z,1.67
2023-03-12T01:53:15.165Z,1.68
2023-03-12T01:53:25.204Z,1.68
2023-03-12T01:53:35.252Z,1.68
2023-03-12T01:53:45.301Z,1.68
2023-03-12T01:53:55.322Z,1.70
2023-03-12T01:54:05.384Z,1.70
2023-03-12T01:54:15.421Z,1.70
2023-03-12T01:54:25.474Z,1.70
2023-03-12T01:54:35.529Z,1.70
2023-03-12T01:54:45.577Z,1.71
2023-03-12T01:54:55.611Z,1.70
2023-03-12T01:55:05.713Z,1.72
2023-03-12T01:55:15.731Z,1.71
2023-03-12T01:55:25.827Z,1.72
2023-03-12T01:55:35.861Z,1.71
2023-03-12T01:55:45.944Z,1.72
2023-03-12T01:55:56.074Z,1.71
2023-03-12T01:56:06.125Z,1.72
2023-03-12T01:56:16.141Z,1.72
2023-03-12T01:56:26.230Z,1.72
2023-03-12T01:56:36.249Z,1.72
2023-03-12T01:56:46.278Z,1.74
2023-03-12T01:56:56.313Z,1.74
2023-03-12T01:57:06.341Z,1.75
2023-03-12T01:57:16.352Z,1.74
2023-03-12T01:57:26.393Z,1.74
2023-03-12T01:57:36.401Z,1.74
2023-03-12T01:57:46.425Z,1.75
2023-03-12T01:57:56.435Z,1.75
2023-03-12T01:58:06.494Z,1.75
2023-03-12T01:58:16.512Z,1.75
2023-03-12T01:58:26.522Z,1.77
2023-03-12T01:58:36.531Z,1.77
2023-03-12T01:58:46.630Z,1.77
2023-03-12T01:58:56.651Z,1.77
2023-03-12T01:59:06.703Z,1.77
2023-03-12T01:59:16.765Z,1.77
2023-03-12T01:59:26.801Z,1.79
2023-03-12T01:59:36.840Z,1.77
2023-03-12T01:59:46.932Z,1.79
2023-03-12T01:59:57.034Z,1.79
2023-03-12T02:00:07.155Z,1.79
2023-03-12T02:00:17.198Z,1.81
2023-03-12T02:00:27.345Z,1.81
2023-03-12T02:00:37.439Z,1.81
2023-03-12T02:00:47.501Z,1.79
2023-03-12T02:00:57.602Z,1.81
2023-03-12T02:01:07.715Z,1.82
2023-03-12T02:01:17.860Z,1.82
2023-03-12T02:01:27.985Z,1.82
2023-03-12T02:01:38.072Z,1.81
2023-03-12T02:01:48.100Z,1.82
2023-03-12T02:01:58.132Z,1.82
2023-03-12T02:02:08.188Z,1.83
2023-03-12T02:02:18.232Z,1.82
2023-03-12T02:02:28.282Z,1.83
2023-03-12T02:02:38.317Z,1.83
2023-03-12T02:02:48.353Z,1.83
2023-03-12T02:02:58.421Z,1.82
2023-03-12T02:03:08.506Z,1.85
2023-03-12T02:03:18.563Z,1.82
2023-03-12T02:03:28.609Z,1.83
2023-03-12T02:03:38.688Z,1.82
2023-03-12T02:03:48.789Z,1.82
2023-03-12T02:03:58.930Z,1.83
2023-03-12T02:04:08.970Z,1.83
2023-03-12T02:04:19.100Z,1.82
2023-03-12T02:04:29.187Z,1.83
2023-03-12T02:04:39.231Z,1.83
2023-03-12T02:04:49.287Z,1.83
2023-03-12T02:04:59.418Z,1.83
2023-03-12T02:05:09.460Z,1.83
2023-03-12T02:05:19.510Z,1.82
2023-03-12T02:05:29.593Z,1.83
2023-03-12T02:05:39.639Z,1.83
2023-03-12T02:05:49.680Z,1.85
2023-03-12T02:05:59.744Z,1.82
2023-03-12T02:06:09.811Z,1.83
2023-03-12T02:06:19.848Z,1.83
2023-03-12T02:06:29.920Z,1.82
2023-03-12T02:06:39.958Z,1.82
2023-03-12T02:06:50.006Z,1.82
2023-03-12T02:07:00.054Z,1.82
2023-03-12T02:07:10.112Z,1.83
2023-03-12T02:07:20.158Z,1.83
2023-03-12T02:07:30.218Z,1.82
2023-03-12T02:07:40.257Z,1.83
2023-03-12T02:07:50.289Z,1.83
2023-03-12T02:08:00.298Z,1.83
2023-03-12T02:08:10.312Z,1.85
2023-03-12T02:08:20.318Z,1.85
2023-03-12T02:08:30.501Z,1.83
2023-03-12T02:08:40.489Z,1.83
2023-03-12T02:08:50.489Z,1.83
2023-03-12T02:09:00.568Z,1.83
2023-03-12T02:09:10.599Z,1.83
2023-03-12T02:09:20.609Z,1.83
2023-03-12T02:09:30.607Z,1.83
2023-03-12T02:09:40.637Z,1.83
2023-03-12T02:09:50.656Z,1.85
2023-03-12T02:10:00.667Z,1.83
2023-03-12T02:10:10.753Z,1.85
2023-03-12T02:10:20.996Z,1.85
2023-03-12T02:10:30.928Z,1.83
2023-03-12T02:10:40.977Z,1.83
2023-03-12T02:10:50.988Z,1.85
2023-03-12T02:11:01.045Z,1.85
2023-03-12T02:11:11.074Z,1.85
2023-03-12T02:11:21.076Z,1.85
2023-03-12T02:11:31.257Z,1.85
2023-03-12T02:11:41.264Z,1.85
2023-03-12T02:11:51.288Z,1.85
2023-03-12T02:12:01.473Z,1.85
2023-03-12T02:12:11.491Z,1.86
2023-03-12T02:12:21.507Z,1.85
2023-03-12T02:12:31.548Z,1.83
2023-03-12T02:12:41.522Z,1.83
2023-03-12T02:12:51.543Z,1.83
2023-03-12T02:13:01.528Z,1.83
2023-03-12T02:13:11.638Z,1.82
2023-03-12T02:13:21.665Z,1.82
2023-03-12T02:13:31.677Z,1.83
2023-03-12T02:13:41.684Z,1.82
2023-03-12T02:13:51.688Z,1.82